Time;durP1;ratioP1;P1;durP2;ratioP2;P2;SDS_P1;SDS_P2;PMS_P1;PMS_P2;Temp;Humidity;BMP_temperature;BMP_pressure;BME280_temperature;BME280_humidity;BME280_pressure;Samples;Min_cycle;Max_cycle;Signal;HPM_P1;HPM_P2
2021/04/21 00:00:05;;;;;;;13.20;11.57;;;11.70;91.80;;;;;;5017283;28;20052;-88
2021/04/21 00:02:32;;;;;;;;;;;11.70;91.90;;;;;;5019296;28;20049;-88
2021/04/21 00:05:00;;;;;;;14.20;10.40;;;11.60;92.10;;;;;;5031187;28;19921;-88
2021/04/21 00:07:29;;;;;;;20.23;11.88;;;11.60;92.00;;;;;;5025240;28;20069;-88
2021/04/21 00:09:55;;;;;;;12.25;11.00;;;11.50;92.20;;;;;;5019110;28;20045;-89
2021/04/21 00:12:23;;;;;;;12.80;10.90;;;11.60;92.10;;;;;;5017627;28;20124;-88
2021/04/21 00:14:52;;;;;;;14.10;11.25;;;11.60;92.20;;;;;;5032502;28;20068;-88
2021/04/21 00:17:23;;;;;;;12.93;11.52;;;11.60;92.30;;;;;;5038254;28;20045;-88
2021/04/21 00:19:54;;;;;;;16.17;11.93;;;11.50;92.30;;;;;;5029024;28;20049;-88
2021/04/21 00:22:23;;;;;;;14.32;11.80;;;11.50;92.30;;;;;;5026049;28;20045;-88
2021/04/21 00:24:52;;;;;;;15.45;11.40;;;11.50;92.40;;;;;;5018609;28;20499;-89
2021/04/21 00:27:22;;;;;;;22.58;12.18;;;11.50;92.40;;;;;;5018906;28;20047;-89
2021/04/21 00:29:52;;;;;;;14.50;10.98;;;11.50;92.50;;;;;;5050314;28;20048;-89
2021/04/21 00:32:21;;;;;;;19.17;11.27;;;11.40;92.50;;;;;;5018479;28;20049;-89
2021/04/21 00:34:48;;;;;;;;;;;11.40;92.50;;;;;;5019159;28;20069;-88
2021/04/21 00:37:16;;;;;;;17.50;11.00;;;11.40;92.70;;;;;;5020939;28;20015;-88
2021/04/21 00:39:45;;;;;;;12.88;11.48;;;11.40;92.50;;;;;;5020021;28;20049;-88
2021/04/21 00:42:29;;;;;;;15.32;11.52;;;11.40;92.60;;;;;;5033744;28;20132;-88
2021/04/21 00:45:12;;;;;;;14.18;11.05;;;11.40;92.90;;;;;;5046360;28;20377;-88
2021/04/21 00:47:45;;;;;;;14.52;11.23;;;11.30;92.70;;;;;;5034112;28;20124;-88
2021/04/21 00:50:17;;;;;;;12.90;10.68;;;11.40;92.80;;;;;;5024323;28;20447;-88
2021/04/21 00:52:47;;;;;;;14.13;11.75;;;11.40;92.80;;;;;;5024095;28;20047;-88
2021/04/21 00:55:20;;;;;;;12.07;10.85;;;11.40;92.80;;;;;;5017547;28;20049;-88
2021/04/21 00:57:55;;;;;;;15.10;11.13;;;11.40;92.80;;;;;;5018221;28;20400;-88
2021/04/21 01:00:27;;;;;;;16.05;11.60;;;11.30;92.80;;;;;;5018547;28;20049;-88
2021/04/21 01:02:58;;;;;;;15.65;11.63;;;11.40;92.90;;;;;;5035571;28;20132;-89
2021/04/21 01:05:29;;;;;;;16.92;11.85;;;11.40;92.90;;;;;;5039317;28;20045;-88
2021/04/21 01:08:00;;;;;;;15.90;11.45;;;11.30;92.90;;;;;;5029603;28;20053;-88
2021/04/21 01:10:30;;;;;;;13.38;11.38;;;11.30;93.00;;;;;;5030924;28;20519;-88
2021/04/21 01:12:59;;;;;;;13.98;11.43;;;11.30;93.00;;;;;;5034924;28;20055;-88
2021/04/21 01:15:27;;;;;;;16.67;11.52;;;11.30;93.00;;;;;;5016462;28;20466;-88
2021/04/21 01:17:56;;;;;;;16.60;11.90;;;11.30;93.00;;;;;;5035240;28;20053;-88
2021/04/21 01:20:29;;;;;;;18.63;11.55;;;11.30;93.10;;;;;;5034692;28;20057;-88
2021/04/21 01:23:16;;;;;;;12.60;10.93;;;11.30;93.10;;;;;;5028416;28;20128;-88
2021/04/21 01:26:04;;;;;;;13.00;11.57;;;11.20;93.10;;;;;;5031481;28;20040;-88
2021/04/21 01:28:35;;;;;;;17.17;12.23;;;11.20;93.20;;;;;;5023014;28;20045;-88
2021/04/21 01:31:02;;;;;;;13.85;11.00;;;11.20;93.20;;;;;;5017825;28;20052;-88
2021/04/21 01:33:30;;;;;;;15.52;11.90;;;11.20;93.30;;;;;;5017427;28;20036;-88
2021/04/21 01:36:03;;;;;;;13.32;11.35;;;11.10;93.40;;;;;;5015140;28;20552;-87
2021/04/21 01:38:31;;;;;;;14.20;11.80;;;11.10;93.40;;;;;;5017318;28;20121;-88
2021/04/21 01:41:20;;;;;;;13.63;11.48;;;11.00;93.50;;;;;;5017995;28;20037;-88
2021/04/21 01:43:57;;;;;;;16.35;11.75;;;11.00;93.60;;;;;;5027148;28;20041;-88
2021/04/21 01:46:27;;;;;;;15.50;11.70;;;11.00;93.60;;;;;;5024046;28;20056;-88
2021/04/21 01:49:04;;;;;;;16.95;11.40;;;10.90;93.60;;;;;;5017786;28;20054;-88
2021/04/21 01:51:33;;;;;;;14.13;11.98;;;10.80;93.70;;;;;;5016249;28;20396;-88
2021/04/21 01:54:15;;;;;;;11.90;10.68;;;10.80;93.80;;;;;;5033952;28;20049;-88
2021/04/21 01:57:19;;;;;;;15.80;11.55;;;10.70;93.90;;;;;;5035434;28;20045;-88
2021/04/21 01:59:51;;;;;;;15.13;11.27;;;10.70;94.00;;;;;;4951692;28;20039;-88
2021/04/21 02:02:27;;;;;;;16.15;11.98;;;10.60;94.00;;;;;;4954092;28;20051;-88
2021/04/21 02:05:13;;;;;;;13.70;12.05;;;10.60;94.10;;;;;;4954683;28;20138;-88
2021/04/21 02:07:54;;;;;;;16.58;12.10;;;10.60;94.20;;;;;;4950414;28;20043;-87
2021/04/21 02:10:46;;;;;;;15.95;12.60;;;10.50;94.30;;;;;;4954602;28;20046;-88
2021/04/21 02:13:50;;;;;;;15.65;11.38;;;10.50;94.40;;;;;;4971080;28;20054;-88
2021/04/21 02:16:24;;;;;;;19.00;12.50;;;10.50;94.50;;;;;;4930546;29;20562;-87
2021/04/21 02:19:38;;;;;;;16.40;12.85;;;10.40;94.50;;;;;;4931498;29;20048;-88
2021/04/21 02:22:33;;;;;;;16.50;12.05;;;10.30;94.70;;;;;;4870827;29;20062;-88
2021/04/21 02:25:09;;;;;;;16.05;11.75;;;10.30;94.80;;;;;;4871608;29;20054;-88
2021/04/21 02:27:54;;;;;;;14.38;12.02;;;10.30;94.90;;;;;;4874281;29;20050;-88
2021/04/21 02:30:40;;;;;;;19.25;13.05;;;10.20;95.00;;;;;;4860211;29;20521;-87
2021/04/21 02:33:45;;;;;;;14.45;12.32;;;10.20;95.20;;;;;;4873795;29;20414;-89
2021/04/21 02:36:45;;;;;;;15.63;13.07;;;10.20;95.30;;;;;;5046415;28;20426;-88
2021/04/21 02:39:53;;;;;;;16.85;13.05;;;10.10;95.30;;;;;;5045947;28;20519;-87
2021/04/21 02:42:59;;;;;;;19.52;13.27;;;10.10;95.40;;;;;;5029007;28;20399;-88
2021/04/21 02:45:58;;;;;;;17.52;13.30;;;10.10;95.50;;;;;;5011509;28;20049;-88
2021/04/21 02:48:44;;;;;;;15.45;12.73;;;10.10;95.70;;;;;;5010745;28;20054;-88
2021/04/21 02:51:34;;;;;;;16.42;13.23;;;10.00;95.70;;;;;;5026295;28;20060;-88
2021/04/21 02:54:21;;;;;;;14.43;12.82;;;10.00;95.80;;;;;;5025052;28;20041;-88
2021/04/21 02:57:01;;;;;;;16.08;13.38;;;10.00;95.80;;;;;;5043593;28;20069;-88
2021/04/21 02:59:50;;;;;;;16.65;12.65;;;10.00;96.00;;;;;;5047001;28;20219;-89
2021/04/21 03:02:30;;;;;;;15.38;12.77;;;10.00;96.00;;;;;;5045534;28;20467;-87
2021/04/21 03:05:09;;;;;;;17.77;13.10;;;10.00;96.00;;;;;;5046064;28;20505;-88
2021/04/21 03:07:59;;;;;;;17.15;13.13;;;9.90;96.00;;;;;;5045575;28;20041;-88
2021/04/21 03:10:43;;;;;;;16.15;13.73;;;9.90;96.10;;;;;;5046646;28;20041;-88
2021/04/21 03:13:17;;;;;;;15.63;13.48;;;9.90;96.10;;;;;;5043460;28;20072;-88
2021/04/21 03:15:52;;;;;;;18.95;13.35;;;9.90;96.20;;;;;;5045930;28;20502;-87
2021/04/21 03:18:20;;;;;;;19.15;13.73;;;9.80;96.30;;;;;;5045860;28;20041;-87
2021/04/21 03:20:53;;;;;;;15.02;13.20;;;9.80;96.40;;;;;;5048398;28;20052;-88
2021/04/21 03:23:22;;;;;;;15.60;12.73;;;9.80;96.40;;;;;;5040842;28;20044;-88
2021/04/21 03:25:55;;;;;;;15.57;13.40;;;9.80;96.50;;;;;;5045784;28;20049;-88
2021/04/21 03:28:22;;;;;;;17.13;13.07;;;9.80;96.70;;;;;;5043821;28;20132;-87
2021/04/21 03:30:55;;;;;;;17.08;13.65;;;9.80;96.50;;;;;;5044090;28;20379;-87
2021/04/21 03:33:27;;;;;;;17.38;12.98;;;9.70;96.50;;;;;;5045645;28;20046;-88
2021/04/21 03:35:54;;;;;;;15.20;13.23;;;9.70;96.60;;;;;;5043774;28;20124;-88
2021/04/21 03:38:21;;;;;;;14.82;13.18;;;9.70;96.60;;;;;;5046808;28;20041;-88
2021/04/21 03:40:48;;;;;;;15.48;12.25;;;9.70;96.70;;;;;;5045865;28;20076;-88
2021/04/21 03:43:15;;;;;;;17.88;13.45;;;9.70;96.70;;;;;;5044933;28;20098;-88
2021/04/21 03:45:46;;;;;;;16.83;12.50;;;9.70;96.70;;;;;;5044785;28;20042;-88
2021/04/21 03:48:15;;;;;;;19.08;13.68;;;9.60;96.70;;;;;;5031351;28;20054;-89
2021/04/21 03:50:43;;;;;;;16.63;13.00;;;9.60;96.80;;;;;;5033161;28;20068;-88
2021/04/21 03:53:13;;;;;;;16.85;12.98;;;9.60;96.90;;;;;;5031421;28;20067;-88
2021/04/21 03:55:41;;;;;;;17.63;13.60;;;9.50;96.90;;;;;;5032199;28;20045;-88
2021/04/21 03:58:10;;;;;;;15.57;13.57;;;9.50;96.90;;;;;;5032092;28;20046;-88
2021/04/21 04:00:38;;;;;;;17.42;13.43;;;9.50;97.00;;;;;;5033274;28;20056;-88
2021/04/21 04:03:10;;;;;;;17.27;14.32;;;9.50;97.10;;;;;;5031981;28;20398;-88
2021/04/21 04:05:53;;;;;;;16.85;13.23;;;9.50;97.10;;;;;;5032392;28;20483;-88
2021/04/21 04:08:24;;;;;;;15.10;13.45;;;9.40;97.10;;;;;;5060620;28;20074;-88
2021/04/21 04:10:52;;;;;;;19.73;14.10;;;9.40;97.20;;;;;;5030400;28;20033;-88
2021/04/21 04:13:19;;;;;;;15.63;13.75;;;9.40;97.20;;;;;;5028989;28;20368;-88
2021/04/21 04:15:51;;;;;;;16.02;13.63;;;9.40;97.20;;;;;;5032069;28;20111;-88
2021/04/21 04:18:20;;;;;;;17.30;13.65;;;9.40;97.30;;;;;;5031180;28;20466;-88
2021/04/21 04:20:50;;;;;;;17.45;13.52;;;9.30;97.30;;;;;;5034984;28;20045;-88
2021/04/21 04:23:18;;;;;;;16.63;13.52;;;9.30;97.40;;;;;;5031829;28;20132;-88
2021/04/21 04:25:50;;;;;;;17.45;13.02;;;9.30;97.50;;;;;;5031828;28;20069;-86
2021/04/21 04:28:19;;;;;;;21.50;13.60;;;9.30;97.50;;;;;;5034066;28;20512;-88
2021/04/21 04:30:46;;;;;;;16.60;13.52;;;9.30;97.60;;;;;;5030240;28;20061;-87
2021/04/21 04:33:16;;;;;;;17.35;13.30;;;9.30;97.60;;;;;;5031830;28;20051;-88
2021/04/21 04:35:43;;;;;;;17.23;13.48;;;9.30;97.60;;;;;;5033082;28;20375;-88
2021/04/21 04:38:12;;;;;;;16.05;13.68;;;9.30;97.60;;;;;;5023603;28;20106;-88
2021/04/21 04:40:39;;;;;;;14.95;12.98;;;9.30;97.70;;;;;;5031294;28;20042;-88
2021/04/21 04:43:07;;;;;;;15.60;12.65;;;9.30;97.70;;;;;;5030380;28;20068;-88
2021/04/21 04:45:37;;;;;;;19.40;13.88;;;9.30;97.60;;;;;;5029940;28;20069;-88
2021/04/21 04:48:15;;;;;;;19.48;13.85;;;9.30;97.60;;;;;;5031675;28;20171;-88
2021/04/21 04:50:47;;;;;;;15.57;13.57;;;9.30;97.50;;;;;;5049771;28;20046;-88
2021/04/21 04:53:15;;;;;;;14.20;12.67;;;9.30;97.50;;;;;;5030044;28;20091;-88
2021/04/21 04:55:43;;;;;;;16.40;13.07;;;9.30;97.50;;;;;;5031292;28;20121;-88
2021/04/21 04:58:12;;;;;;;17.77;13.48;;;9.30;97.60;;;;;;5029842;28;20045;-88
2021/04/21 05:00:41;;;;;;;17.52;13.35;;;9.30;97.60;;;;;;5032402;28;20042;-88
2021/04/21 05:03:28;;;;;;;;;;;9.20;97.60;;;;;;5031499;28;20052;-88
2021/04/21 05:05:56;;;;;;;17.15;12.77;;;9.20;97.70;;;;;;5062312;28;19921;-88
2021/04/21 05:08:27;;;;;;;14.95;13.40;;;9.20;97.70;;;;;;5030683;28;20073;-89
2021/04/21 05:11:02;;;;;;;18.40;13.40;;;9.20;97.70;;;;;;5030798;28;20049;-88
2021/04/21 05:13:38;;;;;;;16.90;13.00;;;9.20;97.60;;;;;;5030178;28;20046;-88
2021/04/21 05:16:04;;;;;;;18.98;12.98;;;9.20;97.60;;;;;;5031014;28;20042;-88
2021/04/21 05:18:58;;;;;;;16.33;13.57;;;9.20;97.60;;;;;;5031727;28;20049;-88
2021/04/21 05:21:33;;;;;;;19.02;13.40;;;9.20;97.70;;;;;;5015846;28;20053;-88
2021/04/21 05:24:22;;;;;;;17.48;13.18;;;9.20;97.70;;;;;;5031342;28;20048;-88
2021/04/21 05:27:12;;;;;;;18.35;13.88;;;9.10;97.60;;;;;;5039630;28;20080;-88
2021/04/21 05:30:04;;;;;;;24.40;13.65;;;9.10;97.70;;;;;;5023760;28;20047;-89
2021/04/21 05:32:49;;;;;;;17.02;13.57;;;9.10;97.70;;;;;;5007953;28;20038;-90
2021/04/21 05:35:37;;;;;;;16.80;14.07;;;9.10;97.70;;;;;;5021297;28;20110;-89
2021/04/21 05:38:21;;;;;;;22.83;13.70;;;9.10;97.70;;;;;;5023320;28;20485;-89
2021/04/21 05:41:09;;;;;;;20.63;13.65;;;9.10;97.80;;;;;;5027190;28;20037;-88
2021/04/21 05:43:44;;;;;;;15.85;13.35;;;9.10;97.80;;;;;;5016071;28;20112;-90
2021/04/21 05:46:36;;;;;;;16.80;13.25;;;9.10;97.90;;;;;;5016402;28;20050;-89
2021/04/21 05:49:51;;;;;;;16.33;13.40;;;9.10;97.90;;;;;;5033915;28;20407;-89
2021/04/21 05:52:55;;;;;;;15.77;13.95;;;9.10;97.90;;;;;;4974836;28;20074;-89
2021/04/21 05:55:40;;;;;;;15.98;13.15;;;9.10;97.90;;;;;;4981174;28;20054;-89
2021/04/21 05:58:28;;;;;;;16.23;13.18;;;9.10;97.90;;;;;;4953866;28;20054;-89
2021/04/21 06:01:12;;;;;;;17.07;13.53;;;9.20;98.00;;;;;;4969896;28;20445;-89
2021/04/21 06:03:41;;;;;;;20.42;13.48;;;9.20;98.00;;;;;;4951966;28;20046;-89
2021/04/21 06:06:08;;;;;;;17.23;13.43;;;9.30;98.10;;;;;;4969572;28;20470;-88
2021/04/21 06:08:35;;;;;;;25.08;13.80;;;9.30;98.00;;;;;;4952707;28;20054;-89
2021/04/21 06:11:02;;;;;;;21.92;13.70;;;9.40;98.00;;;;;;4954268;28;20137;-88
2021/04/21 06:13:32;;;;;;;19.70;13.60;;;9.50;98.10;;;;;;4951855;28;20047;-88
2021/04/21 06:15:59;;;;;;;16.55;12.82;;;9.50;98.00;;;;;;4953906;28;20053;-89
2021/04/21 06:18:26;;;;;;;16.20;13.05;;;9.60;97.90;;;;;;4953770;28;20068;-88
2021/04/21 06:20:53;;;;;;;18.75;13.80;;;9.60;97.90;;;;;;4971232;28;20069;-88
2021/04/21 06:23:23;;;;;;;17.42;12.55;;;9.70;97.90;;;;;;4953208;28;20042;-88
2021/04/21 06:26:00;;;;;;;19.60;12.07;;;9.70;97.70;;;;;;4950718;28;20043;-89
2021/04/21 06:28:27;;;;;;;19.10;12.88;;;9.80;97.60;;;;;;4956536;28;20460;-88
2021/04/21 06:31:09;;;;;;;14.30;12.35;;;9.90;97.50;;;;;;5029482;28;20074;-89
2021/04/21 06:33:43;;;;;;;14.40;11.60;;;10.00;97.40;;;;;;5028127;28;20058;-88
2021/04/21 06:36:16;;;;;;;15.23;12.20;;;10.00;97.30;;;;;;5039867;28;20045;-88
2021/04/21 06:38:43;;;;;;;19.75;12.13;;;10.20;97.20;;;;;;5029873;28;20128;-89
2021/04/21 06:41:11;;;;;;;15.88;12.10;;;10.20;96.90;;;;;;5031914;28;20099;-89
2021/04/21 06:43:38;;;;;;;16.60;12.30;;;10.30;96.90;;;;;;5034849;28;20558;-89
2021/04/21 06:46:10;;;;;;;13.60;11.70;;;10.40;96.80;;;;;;5025415;28;20046;-89
2021/04/21 06:48:38;;;;;;;16.27;12.00;;;10.50;96.80;;;;;;5028235;28;20041;-89
2021/04/21 06:51:14;;;;;;;16.77;11.30;;;10.60;96.60;;;;;;5020506;28;20479;-88
2021/04/21 06:53:45;;;;;;;17.63;11.88;;;10.70;96.50;;;;;;5038388;28;20491;-89
2021/04/21 06:56:14;;;;;;;16.20;11.13;;;10.70;96.40;;;;;;5026113;28;20060;-89
2021/04/21 06:58:41;;;;;;;12.70;11.30;;;10.90;96.20;;;;;;5026991;28;20065;-90
2021/04/21 07:01:13;;;;;;;15.02;11.75;;;11.00;96.10;;;;;;5017434;28;20280;-89
2021/04/21 07:03:41;;;;;;;14.82;11.32;;;11.10;96.00;;;;;;5027815;28;20080;-89
2021/04/21 07:06:08;;;;;;;14.77;11.27;;;11.20;95.80;;;;;;5027520;28;20438;-89
2021/04/21 07:08:40;;;;;;;21.00;11.65;;;11.30;95.70;;;;;;5029096;28;20554;-91
2021/04/21 07:11:20;;;;;;;16.30;11.10;;;11.40;95.60;;;;;;5028354;28;20077;-89
2021/04/21 07:13:49;;;;;;;14.15;11.13;;;11.60;95.50;;;;;;5028589;28;20536;-89
2021/04/21 07:16:29;;;;;;;12.25;10.95;;;11.70;95.40;;;;;;5027936;28;20065;-89
2021/04/21 07:19:06;;;;;;;13.75;11.10;;;11.90;95.20;;;;;;5030150;28;20076;-89
2021/04/21 07:21:34;;;;;;;16.90;11.27;;;12.10;95.00;;;;;;5003045;28;20046;-88
2021/04/21 07:24:04;;;;;;;13.25;11.20;;;12.30;94.90;;;;;;5015569;28;20427;-89
2021/04/21 07:26:33;;;;;;;16.85;10.70;;;12.40;94.70;;;;;;5013276;28;20084;-89
2021/04/21 07:29:00;;;;;;;14.63;11.25;;;12.50;94.60;;;;;;5012886;28;20053;-89
2021/04/21 07:31:27;;;;;;;14.27;10.93;;;12.60;94.50;;;;;;5011172;28;20042;-89
2021/04/21 07:34:10;;;;;;;17.17;11.73;;;12.80;94.30;;;;;;5008000;28;20042;-89
2021/04/21 07:36:48;;;;;;;13.30;10.70;;;12.90;94.30;;;;;;5014107;28;20046;-90
2021/04/21 07:39:17;;;;;;;13.93;10.52;;;13.10;94.10;;;;;;5014101;28;20049;-89
2021/04/21 07:41:46;;;;;;;13.13;10.68;;;13.20;94.00;;;;;;5011238;28;20092;-89
2021/04/21 07:44:31;;;;;;;12.32;9.52;;;13.40;94.00;;;;;;5022749;28;20403;-90
2021/04/21 07:47:07;;;;;;;12.23;10.52;;;13.50;93.50;;;;;;5018548;28;20054;-90
2021/04/21 07:49:36;;;;;;;11.80;10.35;;;13.60;93.60;;;;;;5011275;28;20112;-90
2021/04/21 07:52:07;;;;;;;15.30;10.70;;;13.80;93.40;;;;;;5004953;28;20046;-89
2021/04/21 07:54:37;;;;;;;11.90;10.00;;;13.90;93.00;;;;;;5013870;28;20037;-90
2021/04/21 07:57:08;;;;;;;15.13;10.85;;;14.00;92.90;;;;;;5018054;28;20050;-89
2021/04/21 07:59:41;;;;;;;14.27;9.98;;;14.10;92.80;;;;;;5007463;28;20133;-90
2021/04/21 08:02:14;;;;;;;11.50;9.20;;;14.20;92.70;;;;;;5020653;28;20048;-89
2021/04/21 08:04:56;;;;;;;14.95;10.15;;;14.40;92.70;;;;;;5019450;28;20079;-90
2021/04/21 08:07:40;;;;;;;12.75;9.93;;;14.50;92.20;;;;;;5022896;28;20053;-90
2021/04/21 08:10:22;;;;;;;16.30;9.25;;;14.70;92.10;;;;;;5019506;28;20050;-89
2021/04/21 08:12:53;;;;;;;11.57;9.27;;;14.80;92.00;;;;;;5021421;28;20075;-91
2021/04/21 08:15:35;;;;;;;12.07;9.65;;;14.90;91.90;;;;;;5024067;28;20077;-88
2021/04/21 08:18:12;;;;;;;12.75;9.50;;;15.10;91.70;;;;;;5026767;28;20376;-90
2021/04/21 08:20:39;;;;;;;14.32;9.10;;;15.20;90.80;;;;;;5043049;28;20132;-90
2021/04/21 08:23:26;;;;;;;15.15;9.60;;;15.30;91.20;;;;;;5039174;28;20064;-90
2021/04/21 08:25:53;;;;;;;10.07;8.77;;;15.50;91.20;;;;;;5038955;28;20047;-90
2021/04/21 08:28:23;;;;;;;12.02;8.85;;;15.70;91.20;;;;;;5036417;28;20046;-89
2021/04/21 08:30:59;;;;;;;17.30;9.52;;;15.90;91.10;;;;;;5029199;28;20302;-90
2021/04/21 08:33:30;;;;;;;25.65;8.80;;;16.10;90.70;;;;;;5021629;28;20125;-90
2021/04/21 08:35:59;;;;;;;11.68;7.65;;;16.20;90.40;;;;;;5031902;28;20042;-90
2021/04/21 08:38:26;;;;;;;12.38;8.73;;;16.40;90.00;;;;;;5030908;28;20048;-89
2021/04/21 08:40:52;;;;;;;12.73;8.30;;;16.50;89.90;;;;;;5030761;28;20046;-90
2021/04/21 08:43:21;;;;;;;11.07;7.80;;;16.60;89.10;;;;;;5029566;28;20038;-91
2021/04/21 08:45:51;;;;;;;10.82;8.07;;;16.70;88.60;;;;;;5030900;28;20068;-90
2021/04/21 08:48:18;;;;;;;10.40;8.18;;;16.80;88.30;;;;;;5029816;28;20108;-90
2021/04/21 08:50:45;;;;;;;25.35;8.70;;;16.90;87.80;;;;;;5037356;28;20040;-87
2021/04/21 08:53:13;;;;;;;10.15;7.78;;;17.10;87.30;;;;;;5027700;28;20068;-90
2021/04/21 08:55:40;;;;;;;11.77;8.57;;;17.20;86.40;;;;;;5030182;28;20069;-90
2021/04/21 08:58:09;;;;;;;13.68;8.27;;;17.20;85.50;;;;;;5030771;28;20471;-89
2021/04/21 09:00:39;;;;;;;12.95;7.43;;;17.30;84.80;;;;;;5029936;28;20124;-90
2021/04/21 09:03:06;;;;;;;;;;;17.40;85.00;;;;;;5027141;28;20103;-90
2021/04/21 09:05:32;;;;;;;11.68;7.97;;;17.50;83.70;;;;;;5031513;28;20343;-90
2021/04/21 09:08:01;;;;;;;9.95;7.45;;;17.50;84.60;;;;;;5030885;28;20045;-91
2021/04/21 09:10:28;;;;;;;10.40;7.90;;;17.60;84.20;;;;;;5029256;28;20111;-90
2021/04/21 09:12:54;;;;;;;11.45;6.65;;;17.70;83.50;;;;;;5035079;28;20041;-90
2021/04/21 09:15:21;;;;;;;11.60;7.60;;;17.70;82.90;;;;;;5045876;28;20391;-90
2021/04/21 09:17:52;;;;;;;11.57;7.65;;;17.80;82.80;;;;;;5032149;28;20118;-90
2021/04/21 09:20:21;;;;;;;14.48;8.15;;;17.80;82.70;;;;;;5029096;28;20044;-90
2021/04/21 09:23:11;;;;;;;10.38;8.00;;;18.00;83.20;;;;;;5030350;28;20395;-90
2021/04/21 09:25:44;;;;;;;11.25;8.80;;;18.10;82.50;;;;;;5021000;28;20133;-90
2021/04/21 09:28:19;;;;;;;10.55;6.90;;;18.20;82.80;;;;;;5028585;28;20089;-91
2021/04/21 09:30:53;;;;;;;11.57;8.05;;;18.30;82.60;;;;;;5026602;28;20128;-92
2021/04/21 09:33:21;;;;;;;11.05;7.70;;;18.40;82.00;;;;;;5038783;28;20099;-90
2021/04/21 09:35:48;;;;;;;11.10;7.32;;;18.40;81.50;;;;;;5033150;28;20167;-90
2021/04/21 09:38:27;;;;;;;10.20;6.95;;;18.50;80.90;;;;;;5029675;28;20119;-94
2021/04/21 09:41:14;;;;;;;;;;;;;;;;;;;;;
2021/04/21 09:44:17;;;;;;;10.00;6.97;;;18.70;78.20;;;;;;5022793;28;20049;-95
2021/04/21 09:46:59;;;;;;;9.95;6.50;;;18.70;79.00;;;;;;5027403;28;20053;-93
2021/04/21 09:49:38;;;;;;;10.40;5.95;;;18.80;78.30;;;;;;5028056;28;20171;-94
2021/04/21 09:52:12;;;;;;;7.80;5.90;;;18.90;78.90;;;;;;5030138;28;20475;-92
2021/04/21 09:54:44;;;;;;;6.82;5.93;;;19.00;78.60;;;;;;5042332;28;20037;-93
2021/04/21 09:57:32;;;;;;;9.98;5.88;;;19.10;78.10;;;;;;5039637;28;20391;-93
2021/04/21 10:00:08;;;;;;;8.45;5.63;;;19.20;77.70;;;;;;5046230;28;20107;-94
2021/04/21 10:03:23;;;;;;;;;;;;;;;;;;;;;
2021/04/21 10:05:54;;;;;;;6.45;5.47;;;19.40;77.30;;;;;;5018915;28;20550;-94
2021/04/21 10:08:24;;;;;;;7.15;4.55;;;19.40;76.30;;;;;;4993993;28;20041;-95
2021/04/21 10:11:00;;;;;;;7.15;5.05;;;19.50;76.40;;;;;;5008540;28;20048;-93
2021/04/21 10:14:07;;;;;;;;;;;;;;;;;;;;;
2021/04/21 10:16:37;;;;;;;9.57;4.40;;;19.60;74.50;;;;;;5011993;28;20038;-93
2021/04/21 10:19:14;;;;;;;7.97;4.28;;;19.70;75.30;;;;;;5017194;28;20053;-94
2021/04/21 10:21:46;;;;;;;8.27;4.57;;;19.80;75.20;;;;;;5026813;28;20447;-92
2021/04/21 10:24:14;;;;;;;7.78;4.68;;;19.80;74.10;;;;;;5037718;28;20440;-91
2021/04/21 10:26:41;;;;;;;7.25;4.50;;;19.70;73.40;;;;;;5016242;28;20045;-91
2021/04/21 10:29:08;;;;;;;6.43;4.00;;;19.70;73.60;;;;;;5012274;28;20048;-92
2021/04/21 10:31:35;;;;;;;7.70;5.13;;;19.80;73.60;;;;;;5037101;28;20042;-93
2021/04/21 10:34:06;;;;;;;9.63;4.80;;;19.90;73.70;;;;;;5023090;28;20491;-93
2021/04/21 10:36:36;;;;;;;7.07;3.92;;;19.90;73.80;;;;;;5029995;28;20076;-93
2021/04/21 10:39:04;;;;;;;7.55;3.63;;;20.00;73.70;;;;;;5036298;28;20065;-88
2021/04/21 10:41:43;;;;;;;6.22;4.30;;;20.10;73.90;;;;;;5029982;28;20053;-94
2021/04/21 10:44:30;;;;;;;5.55;4.30;;;20.20;73.50;;;;;;5019912;28;20053;-92
2021/04/21 10:47:29;;;;;;;6.05;3.97;;;20.30;72.10;;;;;;4968201;28;20128;-92
2021/04/21 10:50:14;;;;;;;;;;;;;;;;;;;;;
2021/04/21 10:52:55;;;;;;;7.57;4.47;;;20.30;71.70;;;;;;4968106;28;20054;-91
2021/04/21 10:55:28;;;;;;;6.00;4.05;;;20.40;71.90;;;;;;4987370;28;20050;-92
2021/04/21 10:58:08;;;;;;;7.05;4.65;;;20.50;71.30;;;;;;4972701;28;20074;-93
2021/04/21 11:00:51;;;;;;;;;;;;;;;;;;;;;
2021/04/21 11:03:27;;;;;;;5.68;3.78;;;20.50;70.00;;;;;;4978996;28;20043;-93
2021/04/21 11:06:07;;;;;;;6.07;4.05;;;20.50;69.60;;;;;;4988471;28;20125;-92
2021/04/21 11:09:03;;;;;;;;;;;;;;;;;;;;;
2021/04/21 11:11:47;;;;;;;;;;;;;;;;;;;;;
2021/04/21 11:14:54;;;;;;;11.63;3.83;;;20.80;69.70;;;;;;5011765;28;20052;-94
2021/04/21 11:17:55;;;;;;;9.75;3.72;;;20.80;68.40;;;;;;5004489;28;20108;-95
2021/04/21 11:20:46;;;;;;;6.22;4.45;;;20.90;68.10;;;;;;4990432;28;20454;-89
2021/04/21 11:23:55;;;;;;;7.00;4.03;;;20.90;66.50;;;;;;5035183;28;20116;-89
2021/04/21 11:26:26;;;;;;;5.57;3.70;;;20.90;67.40;;;;;;5014606;28;20053;-89
2021/04/21 11:29:04;;;;;;;4.60;3.40;;;21.00;67.40;;;;;;5026257;28;20066;-89
2021/04/21 11:34:20;;;;;;;5.55;3.05;;;21.10;65.40;;;;;;5017366;28;20039;-89
2021/04/21 11:36:50;;;;;;;5.00;3.70;;;21.10;66.00;;;;;;5010734;28;20045;-89
2021/04/21 11:39:42;;;;;;;4.90;3.10;;;21.00;66.60;;;;;;5002197;28;20492;-89
2021/04/21 11:42:19;;;;;;;5.18;3.88;;;20.90;66.80;;;;;;5010183;28;20069;-88
2021/04/21 11:45:16;;;;;;;5.07;3.60;;;20.90;67.00;;;;;;5014789;28;20088;-91
2021/04/21 11:48:01;;;;;;;5.80;3.80;;;20.90;66.20;;;;;;4996025;28;20038;-91
2021/04/21 11:50:35;;;;;;;5.03;3.95;;;20.90;66.40;;;;;;5019765;28;20428;-91
2021/04/21 11:53:15;;;;;;;4.88;4.18;;;21.00;67.20;;;;;;5008519;28;20046;-91
2021/04/21 11:55:59;;;;;;;7.40;4.10;;;21.10;67.10;;;;;;5030694;28;20136;-92
2021/04/21 11:58:40;;;;;;;9.00;3.85;;;21.00;65.90;;;;;;5022231;28;20049;-90
2021/04/21 12:01:10;;;;;;;4.43;3.95;;;20.90;67.60;;;;;;5030797;28;20049;-91
2021/04/21 12:03:38;;;;;;;8.45;3.83;;;20.80;67.30;;;;;;5031513;28;20045;-90
2021/04/21 12:06:11;;;;;;;8.70;4.20;;;20.60;66.60;;;;;;5031589;28;20049;-87
2021/04/21 12:08:41;;;;;;;6.68;3.65;;;20.40;66.10;;;;;;5031175;28;20049;-90
2021/04/21 12:11:08;;;;;;;6.45;4.07;;;20.20;66.70;;;;;;5029585;28;20058;-92
2021/04/21 12:13:39;;;;;;;4.60;3.53;;;20.00;67.00;;;;;;5023459;28;20486;-91
2021/04/21 12:16:17;;;;;;;5.10;3.72;;;19.90;67.30;;;;;;5031317;28;20053;-91
2021/04/21 12:18:49;;;;;;;6.00;4.22;;;19.80;67.70;;;;;;5030648;28;20195;-90
2021/04/21 12:21:17;;;;;;;5.38;3.35;;;19.70;67.80;;;;;;5031656;28;20069;-90
2021/04/21 12:23:53;;;;;;;7.93;3.83;;;19.60;68.20;;;;;;5039468;28;20491;-91
2021/04/21 12:26:24;;;;;;;7.68;3.97;;;19.60;68.40;;;;;;5032957;28;20037;-91
2021/04/21 12:28:54;;;;;;;5.35;3.53;;;19.50;68.20;;;;;;5021679;28;20505;-92
2021/04/21 12:31:22;;;;;;;7.50;3.60;;;19.50;68.10;;;;;;5029521;28;20049;-92
2021/04/21 12:33:53;;;;;;;7.18;3.75;;;19.60;68.50;;;;;;5030985;28;20091;-92
2021/04/21 12:36:27;;;;;;;15.63;3.60;;;19.70;67.60;;;;;;5033485;28;20104;-91
2021/04/21 12:39:10;;;;;;;17.35;3.58;;;19.70;66.80;;;;;;5033656;28;20387;-90
2021/04/21 12:41:38;;;;;;;18.02;3.17;;;19.70;66.10;;;;;;5019559;28;20454;-90
2021/04/21 12:44:14;;;;;;;14.02;3.72;;;19.70;66.80;;;;;;5012079;28;20135;-90
2021/04/21 12:46:41;;;;;;;13.45;3.53;;;19.70;67.30;;;;;;5011664;28;20052;-90
2021/04/21 12:49:33;;;;;;;5.32;3.08;;;19.60;67.30;;;;;;5009064;28;20077;-90
2021/04/21 12:52:02;;;;;;;4.05;2.83;;;19.60;67.20;;;;;;5006677;28;20045;-90
2021/04/21 12:54:30;;;;;;;5.90;3.38;;;19.60;68.00;;;;;;5001748;28;20044;-90
2021/04/21 12:56:58;;;;;;;7.15;4.00;;;19.60;67.70;;;;;;5012166;28;20053;-90
2021/04/21 12:59:25;;;;;;;6.07;3.60;;;19.60;67.60;;;;;;5009122;28;20045;-90
2021/04/21 13:01:52;;;;;;;8.73;3.97;;;19.60;67.60;;;;;;5010989;28;20465;-90
2021/04/21 13:04:19;;;;;;;6.80;4.18;;;19.70;68.00;;;;;;5010081;28;20049;-90
2021/04/21 13:06:53;;;;;;;7.07;4.50;;;19.60;68.50;;;;;;5009700;28;20074;-90
2021/04/21 13:09:26;;;;;;;7.18;4.53;;;19.60;68.70;;;;;;5007551;28;20052;-90
2021/04/21 13:12:01;;;;;;;6.25;4.43;;;19.60;68.40;;;;;;5010120;28;20163;-90
2021/04/21 13:14:54;;;;;;;11.27;4.45;;;19.60;68.30;;;;;;5010122;28;20357;-90
2021/04/21 13:17:24;;;;;;;7.53;4.47;;;19.40;69.30;;;;;;5006437;28;20146;-88
2021/04/21 13:19:53;;;;;;;5.88;4.22;;;19.30;69.50;;;;;;5009709;28;20046;-90
2021/04/21 13:22:28;;;;;;;6.88;4.32;;;19.20;70.20;;;;;;5009525;28;20388;-90
2021/04/21 13:24:58;;;;;;;7.28;4.53;;;19.10;71.30;;;;;;5008722;28;20038;-88
2021/04/21 13:27:31;;;;;;;8.85;4.20;;;19.00;72.10;;;;;;5009464;28;20050;-90
2021/04/21 13:30:05;;;;;;;6.10;4.50;;;18.90;72.00;;;;;;5040209;28;20056;-90